createdAt,value
2023-11-26T00:00:17.434Z,99.99
2023-11-26T00:01:18.317Z,99.99
2023-11-26T00:02:19.643Z,99.99
2023-11-26T00:03:19.861Z,99.99
2023-11-26T00:04:20.950Z,99.99
2023-11-26T00:05:21.297Z,99.99
2023-11-26T00:06:21.458Z,99.99
2023-11-26T00:07:22.178Z,99.99
2023-11-26T00:08:23.088Z,99.99
2023-11-26T00:09:23.108Z,99.99
2023-11-26T00:10:24.023Z,99.99
2023-11-26T00:11:24.368Z,99.99
2023-11-26T00:12:25.333Z,99.99
2023-11-26T00:13:25.510Z,99.99
2023-11-26T00:14:26.066Z,99.99
2023-11-26T00:15:26.305Z,99.99
2023-11-26T00:16:26.647Z,99.99
2023-11-26T00:17:27.655Z,99.99
2023-11-26T00:18:27.940Z,99.99
2023-11-26T00:19:28.552Z,99.99
2023-11-26T00:20:29.568Z,99.99
2023-11-26T00:21:29.573Z,99.99
2023-11-26T00:22:29.918Z,99.99
2023-11-26T00:23:30.087Z,99.99
2023-11-26T00:24:30.558Z,99.99
2023-11-26T00:25:31.071Z,99.99
2023-11-26T00:26:31.711Z,99.99
2023-11-26T00:27:32.649Z,99.99
2023-11-26T00:28:32.692Z,99.99
2023-11-26T00:29:33.003Z,99.99
2023-11-26T00:30:33.727Z,99.99
2023-11-26T00:31:34.267Z,99.99
2023-11-26T00:32:37.428Z,99.99
2023-11-26T00:33:35.159Z,99.99
2023-11-26T00:34:36.050Z,99.99
2023-11-26T00:35:36.431Z,99.99
2023-11-26T00:36:37.403Z,99.99
2023-11-26T00:37:37.519Z,99.99
2023-11-26T00:38:37.829Z,99.99
2023-11-26T00:39:38.522Z,99.99
2023-11-26T00:40:39.222Z,99.99
2023-11-26T00:41:40.197Z,99.99
2023-11-26T00:42:41.096Z,99.99
2023-11-26T00:43:41.091Z,99.99
2023-11-26T00:44:41.596Z,99.99
2023-11-26T00:45:42.572Z,99.99
2023-11-26T00:46:43.447Z,99.99
2023-11-26T00:47:43.407Z,99.99
2023-11-26T00:48:44.041Z,99.99
2023-11-26T00:49:44.354Z,99.99
2023-11-26T00:50:44.774Z,99.99
2023-11-26T00:51:45.901Z,99.99
2023-11-26T00:52:46.439Z,99.99
2023-11-26T00:53:46.944Z,99.99
2023-11-26T00:54:47.740Z,99.99
2023-11-26T00:55:48.850Z,99.99
2023-11-26T00:56:49.538Z,99.99
2023-11-26T00:57:50.305Z,99.99
2023-11-26T00:58:50.516Z,99.99
2023-11-26T00:59:50.481Z,99.99
2023-11-26T01:00:50.617Z,99.99
2023-11-26T01:01:52.004Z,99.99
2023-11-26T01:02:52.718Z,99.99
2023-11-26T01:03:53.122Z,99.99
2023-11-26T01:04:54.145Z,99.99
2023-11-26T01:05:54.860Z,99.99
2023-11-26T01:06:55.667Z,99.99
2023-11-26T01:07:56.430Z,99.99
2023-11-26T01:08:57.242Z,99.99
2023-11-26T01:09:57.733Z,99.99
2023-11-26T01:10:58.787Z,99.99
2023-11-26T01:11:59.320Z,99.99
2023-11-26T01:13:00.102Z,99.99
2023-11-26T01:14:00.466Z,99.99
2023-11-26T01:15:00.347Z,99.99
2023-11-26T01:16:00.627Z,99.99
2023-11-26T01:17:01.538Z,99.99
2023-11-26T01:18:02.480Z,99.99
2023-11-26T01:19:02.605Z,99.99
2023-11-26T01:20:03.652Z,99.99
2023-11-26T01:21:04.752Z,99.99
2023-11-26T01:22:05.275Z,99.99
2023-11-26T01:23:05.584Z,99.99
2023-11-26T01:24:06.398Z,99.99
2023-11-26T01:25:06.802Z,99.99
2023-11-26T01:26:07.564Z,99.99
2023-11-26T01:27:08.421Z,99.99
2023-11-26T01:28:09.373Z,99.99
2023-11-26T01:29:09.632Z,99.99
2023-11-26T01:30:10.228Z,99.99
2023-11-26T01:31:10.994Z,99.99
2023-11-26T01:32:11.732Z,99.99
2023-11-26T01:33:12.973Z,99.99
2023-11-26T01:34:12.828Z,99.99
2023-11-26T01:35:13.140Z,99.99
2023-11-26T01:36:13.912Z,99.99
2023-11-26T01:37:14.792Z,99.99
2023-11-26T01:38:15.851Z,99.99
2023-11-26T01:39:16.295Z,99.99
2023-11-26T01:40:16.783Z,99.99
2023-11-26T01:41:17.556Z,99.99
2023-11-26T01:42:18.664Z,99.99
2023-11-26T01:43:19.673Z,99.99
2023-11-26T01:44:19.976Z,99.99
2023-11-26T01:45:20.471Z,99.99
2023-11-26T01:46:21.310Z,99.99
2023-11-26T01:47:21.808Z,99.99
2023-11-26T01:48:22.802Z,99.99
2023-11-26T01:49:23.284Z,99.99
2023-11-26T01:50:23.941Z,99.99
2023-11-26T01:51:24.615Z,99.99
2023-11-26T01:52:25.083Z,99.99
2023-11-26T01:53:26.031Z,99.99
2023-11-26T01:54:27.000Z,99.99
2023-11-26T01:55:27.669Z,99.99
2023-11-26T01:56:27.820Z,99.99
2023-11-26T01:57:28.597Z,99.99
2023-11-26T01:58:29.354Z,99.99
2023-11-26T01:59:29.688Z,99.99
2023-11-26T02:00:29.699Z,99.99
2023-11-26T02:01:30.349Z,99.99
2023-11-26T02:02:31.216Z,99.99
2023-11-26T02:03:32.308Z,99.99
2023-11-26T02:04:32.539Z,99.99
2023-11-26T02:05:33.070Z,99.99
2023-11-26T02:06:33.777Z,99.99
2023-11-26T02:07:34.262Z,99.99
2023-11-26T02:08:34.992Z,99.99
2023-11-26T02:09:35.699Z,99.99
2023-11-26T02:10:36.620Z,99.99
2023-11-26T02:11:37.082Z,99.99
2023-11-26T02:12:37.575Z,99.99
2023-11-26T02:13:38.283Z,99.99
2023-11-26T02:14:38.382Z,99.99
2023-11-26T02:15:38.685Z,99.99
2023-11-26T02:16:39.670Z,99.99
2023-11-26T02:17:40.201Z,99.99
2023-11-26T02:18:40.800Z,99.99
2023-11-26T02:19:41.316Z,99.99
2023-11-26T02:20:41.659Z,99.99
2023-11-26T02:21:42.178Z,99.99
2023-11-26T02:22:43.044Z,99.99
2023-11-26T02:23:43.613Z,99.99
2023-11-26T02:24:44.292Z,99.99
2023-11-26T02:25:44.525Z,99.99
2023-11-26T02:26:45.259Z,99.99
2023-11-26T02:27:45.562Z,99.99
2023-11-26T02:28:45.955Z,99.99
2023-11-26T02:29:46.029Z,99.99
2023-11-26T02:30:46.749Z,99.99
2023-11-26T02:31:47.096Z,99.99
2023-11-26T02:32:48.215Z,99.99
2023-11-26T02:34:01.016Z,99.99
2023-11-26T02:34:49.809Z,99.99
2023-11-26T02:35:50.638Z,99.99
2023-11-26T02:36:51.134Z,99.99
2023-11-26T02:37:51.814Z,99.99
2023-11-26T02:38:52.491Z,99.99
2023-11-26T02:39:52.965Z,99.99
2023-11-26T02:40:53.710Z,99.99
2023-11-26T02:41:54.527Z,99.99
2023-11-26T02:42:55.489Z,99.99
2023-11-26T02:43:56.489Z,99.99
2023-11-26T02:44:56.683Z,99.99
2023-11-26T02:45:57.210Z,99.99
2023-11-26T02:46:57.827Z,99.99
2023-11-26T02:47:57.954Z,99.99
2023-11-26T02:48:58.597Z,99.99
2023-11-26T02:49:59.602Z,99.99
2023-11-26T02:50:59.396Z,99.99
2023-11-26T02:52:00.084Z,99.99
2023-11-26T02:53:00.841Z,99.99
2023-11-26T02:54:01.505Z,99.99
2023-11-26T02:55:02.232Z,99.99
2023-11-26T02:56:02.743Z,99.99
2023-11-26T02:57:03.587Z,99.99
2023-11-26T02:58:04.043Z,99.99
2023-11-26T02:59:05.069Z,99.99
2023-11-26T03:00:05.336Z,99.99
2023-11-26T03:01:05.712Z,99.99
2023-11-26T03:02:06.873Z,99.99
2023-11-26T03:03:06.632Z,99.99
2023-11-26T03:04:07.679Z,99.99
2023-11-26T03:05:08.274Z,99.99
2023-11-26T03:06:08.454Z,99.99
2023-11-26T03:07:09.163Z,99.99
2023-11-26T03:08:09.481Z,99.99
2023-11-26T03:09:10.310Z,99.99
2023-11-26T03:10:11.030Z,99.99
2023-11-26T03:11:11.186Z,99.99
2023-11-26T03:12:11.834Z,99.99
2023-11-26T03:13:12.354Z,99.99
2023-11-26T03:14:13.558Z,99.99
2023-11-26T03:15:14.056Z,99.99
2023-11-26T03:16:14.787Z,99.99
2023-11-26T03:17:15.781Z,99.99
2023-11-26T03:18:15.844Z,99.99
2023-11-26T03:19:16.602Z,99.99
2023-11-26T03:20:17.066Z,99.99
2023-11-26T03:21:17.231Z,99.99
2023-11-26T03:22:17.526Z,99.99
2023-11-26T03:23:18.671Z,99.99
2023-11-26T03:24:18.717Z,99.99
2023-11-26T03:25:18.906Z,99.99
2023-11-26T03:26:19.864Z,99.99
2023-11-26T03:27:20.601Z,99.99
2023-11-26T03:28:21.081Z,99.99
2023-11-26T03:29:21.724Z,99.99
2023-11-26T03:30:22.040Z,99.99
2023-11-26T03:31:22.528Z,99.99
2023-11-26T03:32:23.269Z,99.99
2023-11-26T03:33:23.568Z,99.99
2023-11-26T03:34:24.649Z,99.99
2023-11-26T03:35:25.269Z,99.99
2023-11-26T03:36:26.021Z,99.99
2023-11-26T03:37:26.890Z,99.99
2023-11-26T03:38:27.833Z,99.99
2023-11-26T03:39:28.564Z,99.99
2023-11-26T03:40:28.650Z,99.99
2023-11-26T03:41:29.025Z,99.99
2023-11-26T03:42:34.660Z,99.99
2023-11-26T03:43:31.164Z,99.99
2023-11-26T03:44:31.769Z,99.99
2023-11-26T03:45:31.763Z,99.99
2023-11-26T03:46:32.182Z,99.99
2023-11-26T03:47:32.671Z,99.99
2023-11-26T03:48:33.294Z,99.99
2023-11-26T03:49:34.148Z,99.99
2023-11-26T03:50:34.917Z,99.99
2023-11-26T03:51:35.745Z,99.99
2023-11-26T03:52:36.644Z,99.99
2023-11-26T03:53:37.201Z,99.99
2023-11-26T03:54:38.063Z,99.99
2023-11-26T03:55:38.320Z,99.99
2023-11-26T03:56:39.253Z,99.99
2023-11-26T03:57:39.463Z,99.99
2023-11-26T03:58:40.197Z,99.99
2023-11-26T03:59:41.007Z,99.99
2023-11-26T04:00:41.245Z,99.99
2023-11-26T04:01:42.093Z,99.99
2023-11-26T04:02:42.736Z,99.99
2023-11-26T04:03:43.381Z,99.99
2023-11-26T04:04:44.043Z,99.99
2023-11-26T04:05:44.575Z,99.99
2023-11-26T04:06:45.198Z,99.99
2023-11-26T04:07:45.710Z,99.99
2023-11-26T04:08:46.400Z,99.99
2023-11-26T04:09:46.902Z,99.99
2023-11-26T04:10:47.855Z,99.99
2023-11-26T04:11:47.834Z,99.99
2023-11-26T04:12:48.329Z,99.99
2023-11-26T04:13:49.049Z,99.99
2023-11-26T04:14:49.784Z,99.99
2023-11-26T04:15:49.813Z,99.99
2023-11-26T04:16:50.739Z,99.99
2023-11-26T04:17:51.672Z,99.99
2023-11-26T04:18:51.956Z,99.99
2023-11-26T04:19:52.468Z,99.99
2023-11-26T04:20:53.152Z,99.99
2023-11-26T04:21:53.549Z,99.99
2023-11-26T04:22:54.294Z,99.99
2023-11-26T04:23:55.417Z,99.99
2023-11-26T04:24:56.098Z,99.99
2023-11-26T04:25:56.254Z,99.99
2023-11-26T04:26:56.628Z,99.99
2023-11-26T04:27:57.283Z,99.99
2023-11-26T04:28:58.049Z,99.99
2023-11-26T04:29:59.091Z,99.99
2023-11-26T04:30:59.180Z,99.99
2023-11-26T04:32:00.194Z,99.99
2023-11-26T04:33:01.166Z,99.99
2023-11-26T04:34:01.029Z,99.99
2023-11-26T04:35:01.859Z,99.99
2023-11-26T04:36:02.406Z,99.99
2023-11-26T04:37:02.793Z,99.99
2023-11-26T04:38:03.612Z,99.99
2023-11-26T04:39:03.505Z,99.99
2023-11-26T04:40:04.009Z,99.99
2023-11-26T04:41:04.401Z,99.99
2023-11-26T04:42:05.232Z,99.99
2023-11-26T04:43:05.907Z,99.99
2023-11-26T04:44:06.461Z,99.99
2023-11-26T04:45:07.286Z,99.99
2023-11-26T04:46:07.346Z,99.99
2023-11-26T04:47:08.053Z,99.99
2023-11-26T04:48:08.729Z,99.99
2023-11-26T04:49:09.585Z,99.99
2023-11-26T04:50:09.936Z,99.99
2023-11-26T04:51:10.779Z,99.99
2023-11-26T04:52:11.331Z,99.99
2023-11-26T04:53:11.868Z,99.99
2023-11-26T04:54:13.012Z,99.99
2023-11-26T04:55:13.983Z,99.99
2023-11-26T04:56:14.886Z,99.99
2023-11-26T04:57:15.544Z,99.99
2023-11-26T04:58:16.271Z,99.99
2023-11-26T04:59:16.514Z,99.99
2023-11-26T05:00:16.674Z,99.99
2023-11-26T05:01:16.988Z,99.99
2023-11-26T05:02:17.769Z,99.99
2023-11-26T05:03:18.991Z,99.99
2023-11-26T05:04:19.321Z,99.99
2023-11-26T05:05:20.066Z,99.99
2023-11-26T05:06:20.685Z,99.99
2023-11-26T05:07:20.993Z,99.99
2023-11-26T05:08:21.568Z,99.99
2023-11-26T05:09:22.360Z,99.99
2023-11-26T05:10:22.893Z,99.99
2023-11-26T05:11:23.443Z,99.99
2023-11-26T05:12:24.086Z,99.99
2023-11-26T05:13:24.259Z,99.99
2023-11-26T05:14:24.854Z,99.99
2023-11-26T05:15:26.008Z,99.99
2023-11-26T05:16:26.167Z,99.99
2023-11-26T05:17:27.013Z,99.99
2023-11-26T05:18:28.010Z,99.99
2023-11-26T05:19:28.740Z,99.99
2023-11-26T05:20:29.321Z,99.99
2023-11-26T05:21:29.670Z,99.99
2023-11-26T05:22:30.670Z,99.99
2023-11-26T05:23:31.297Z,99.99
2023-11-26T05:24:32.040Z,99.99
2023-11-26T05:25:32.724Z,99.99
2023-11-26T05:26:33.850Z,99.99
2023-11-26T05:27:34.442Z,99.99
2023-11-26T05:28:34.937Z,99.99
2023-11-26T05:29:35.516Z,99.99
2023-11-26T05:30:36.329Z,99.99
2023-11-26T05:31:36.686Z,99.99
2023-11-26T05:32:37.528Z,99.99
2023-11-26T05:33:38.333Z,99.99
2023-11-26T05:34:38.842Z,99.99
2023-11-26T05:35:39.465Z,99.99
2023-11-26T05:36:40.229Z,99.99
2023-11-26T05:37:41.040Z,99.99
2023-11-26T05:38:41.015Z,99.99
2023-11-26T05:39:42.130Z,99.99
2023-11-26T05:40:42.791Z,99.99
2023-11-26T05:41:43.543Z,99.99
2023-11-26T05:42:44.459Z,99.99
2023-11-26T05:43:45.379Z,99.99
2023-11-26T05:44:45.717Z,99.99
2023-11-26T05:45:46.560Z,99.99
2023-11-26T05:46:46.547Z,99.99
2023-11-26T05:47:48.112Z,99.99
2023-11-26T05:48:48.379Z,99.99
2023-11-26T05:49:48.546Z,99.99
2023-11-26T05:50:48.911Z,99.99
2023-11-26T05:51:49.855Z,99.99
2023-11-26T05:52:50.602Z,99.99
2023-11-26T05:53:50.675Z,99.99
2023-11-26T05:54:51.135Z,99.99
2023-11-26T05:55:52.413Z,99.99
2023-11-26T05:56:52.678Z,99.99
2023-11-26T05:57:53.275Z,99.99
2023-11-26T05:58:53.185Z,99.99
2023-11-26T05:59:53.675Z,99.99
2023-11-26T06:00:54.526Z,99.99
2023-11-26T06:01:54.128Z,99.99
2023-11-26T06:02:54.728Z,99.99
2023-11-26T06:03:55.622Z,99.99
2023-11-26T06:04:56.023Z,99.99
2023-11-26T06:05:56.923Z,99.99
2023-11-26T06:06:57.562Z,99.99
2023-11-26T06:07:58.366Z,99.99
2023-11-26T06:08:59.238Z,99.99
2023-11-26T06:10:00.040Z,99.99
2023-11-26T06:11:00.924Z,99.99
2023-11-26T06:12:01.595Z,99.99
2023-11-26T06:13:01.892Z,99.99
2023-11-26T06:14:02.651Z,99.99
2023-11-26T06:15:03.327Z,99.99
2023-11-26T06:16:03.724Z,99.99
2023-11-26T06:17:03.778Z,99.99
2023-11-26T06:18:04.536Z,99.99
2023-11-26T06:19:05.250Z,99.99
2023-11-26T06:20:06.221Z,99.99
2023-11-26T06:21:06.478Z,99.99
2023-11-26T06:22:07.439Z,99.99
2023-11-26T06:23:07.352Z,99.99
2023-11-26T06:24:08.093Z,99.99
2023-11-26T06:25:08.868Z,99.99
2023-11-26T06:26:09.767Z,99.99
2023-11-26T06:27:10.329Z,99.99
2023-11-26T06:28:10.636Z,99.99
2023-11-26T06:29:11.513Z,99.99
2023-11-26T06:30:11.838Z,99.99
2023-11-26T06:31:12.646Z,99.99
2023-11-26T06:32:12.847Z,99.99
2023-11-26T06:33:13.460Z,99.99
2023-11-26T06:34:13.830Z,99.99
2023-11-26T06:35:14.589Z,99.99
2023-11-26T06:36:15.312Z,99.99
2023-11-26T06:37:15.892Z,99.99
2023-11-26T06:38:16.664Z,99.99
2023-11-26T06:39:17.522Z,99.99
2023-11-26T06:40:18.376Z,99.99
2023-11-26T06:41:19.090Z,99.99
2023-11-26T06:42:19.937Z,99.99
2023-11-26T06:43:20.877Z,99.99
2023-11-26T06:44:21.560Z,99.99
2023-11-26T06:45:22.371Z,99.99
2023-11-26T06:46:23.338Z,99.99
2023-11-26T06:47:23.715Z,99.99
2023-11-26T06:48:24.407Z,99.99
2023-11-26T06:49:24.885Z,99.99
2023-11-26T06:50:25.557Z,99.99
2023-11-26T06:51:25.882Z,99.99
2023-11-26T06:52:26.578Z,99.99
2023-11-26T06:53:27.253Z,99.99
2023-11-26T06:54:28.419Z,99.99
2023-11-26T06:55:29.072Z,99.99
2023-11-26T06:56:29.014Z,99.99
2023-11-26T06:57:29.819Z,99.99
2023-11-26T06:58:29.917Z,99.99
2023-11-26T06:59:30.569Z,99.99
2023-11-26T07:00:30.974Z,99.99
2023-11-26T07:01:32.129Z,99.99
2023-11-26T07:02:32.605Z,99.99
2023-11-26T07:03:33.508Z,99.99
2023-11-26T07:04:34.196Z,99.99
2023-11-26T07:05:34.619Z,99.99
2023-11-26T07:06:35.788Z,99.99
2023-11-26T07:07:35.866Z,99.99
2023-11-26T07:08:36.088Z,99.99
2023-11-26T07:09:36.663Z,99.99
2023-11-26T07:10:37.559Z,99.99
2023-11-26T07:11:38.246Z,99.99
2023-11-26T07:12:38.959Z,99.99
2023-11-26T07:13:39.935Z,99.99
2023-11-26T07:14:42.044Z,99.99
2023-11-26T07:15:40.732Z,99.99
2023-11-26T07:16:41.929Z,99.99
2023-11-26T07:17:41.924Z,99.99
2023-11-26T07:18:42.651Z,99.99
2023-11-26T07:19:42.972Z,99.99
2023-11-26T07:20:43.487Z,99.99
2023-11-26T07:21:43.800Z,99.99
2023-11-26T07:22:44.577Z,99.99
2023-11-26T07:23:44.726Z,99.99
2023-11-26T07:24:45.248Z,99.99
2023-11-26T07:25:45.838Z,99.99
2023-11-26T07:26:46.548Z,99.99
2023-11-26T07:27:47.488Z,99.99
2023-11-26T07:28:47.699Z,99.99
2023-11-26T07:29:48.651Z,99.99
2023-11-26T07:30:49.608Z,99.99
2023-11-26T07:31:50.214Z,99.99
2023-11-26T07:32:50.512Z,99.99
2023-11-26T07:33:50.686Z,99.99
2023-11-26T07:34:51.786Z,99.99
2023-11-26T07:35:52.466Z,99.99
2023-11-26T07:36:52.765Z,99.99
2023-11-26T07:37:53.814Z,99.99
2023-11-26T07:38:54.563Z,99.99
2023-11-26T07:39:54.764Z,99.99
2023-11-26T07:40:55.522Z,99.99
2023-11-26T07:41:56.245Z,99.99
2023-11-26T07:42:56.449Z,99.99
2023-11-26T07:43:56.989Z,99.99
2023-11-26T07:44:57.977Z,99.99
2023-11-26T07:45:58.617Z,99.99
2023-11-26T07:46:59.713Z,99.99
2023-11-26T07:48:00.010Z,99.99
2023-11-26T07:49:00.825Z,99.99
2023-11-26T07:50:01.765Z,99.99
2023-11-26T07:51:02.305Z,99.99
2023-11-26T07:52:03.093Z,99.99
2023-11-26T07:53:03.643Z,99.99
2023-11-26T07:54:04.341Z,99.99
2023-11-26T07:55:05.003Z,99.99
2023-11-26T07:56:05.649Z,99.99
2023-11-26T07:57:06.153Z,99.99
2023-11-26T07:58:06.887Z,99.99
2023-11-26T07:59:07.906Z,99.99
2023-11-26T08:00:08.839Z,99.99
2023-11-26T08:01:09.956Z,99.99
2023-11-26T08:02:11.056Z,99.99
2023-11-26T08:03:11.551Z,99.99
2023-11-26T08:04:11.998Z,99.99
2023-11-26T08:05:12.614Z,99.99
2023-11-26T08:06:13.721Z,99.99
2023-11-26T08:07:13.998Z,99.99
2023-11-26T08:08:14.499Z,99.99
2023-11-26T08:09:15.551Z,99.99
2023-11-26T08:10:16.174Z,99.99
2023-11-26T08:11:16.622Z,99.99
2023-11-26T08:12:17.596Z,99.99
2023-11-26T08:13:18.163Z,99.99
2023-11-26T08:14:18.904Z,99.99
2023-11-26T08:15:19.567Z,99.99
2023-11-26T08:16:20.922Z,99.99
2023-11-26T08:17:21.042Z,99.99
2023-11-26T08:18:21.101Z,99.99
2023-11-26T08:19:21.657Z,99.99
2023-11-26T08:20:22.131Z,99.99
2023-11-26T08:21:22.919Z,99.99
2023-11-26T08:22:23.728Z,99.99
2023-11-26T08:23:24.224Z,99.99
2023-11-26T08:24:25.846Z,99.99
2023-11-26T08:25:25.716Z,99.99
2023-11-26T08:26:26.014Z,99.99
2023-11-26T08:27:26.380Z,99.99
2023-11-26T08:28:26.784Z,99.99
2023-11-26T08:29:26.971Z,99.99
2023-11-26T08:30:27.554Z,99.99
2023-11-26T08:31:28.549Z,99.99
2023-11-26T08:32:29.564Z,99.99
2023-11-26T08:33:30.041Z,99.99
2023-11-26T08:34:30.125Z,99.99
2023-11-26T08:35:31.184Z,99.99
2023-11-26T08:36:32.189Z,99.99
2023-11-26T08:37:33.762Z,99.99
2023-11-26T08:38:33.091Z,99.99
2023-11-26T08:39:34.187Z,99.99
2023-11-26T08:40:34.697Z,99.99
2023-11-26T08:41:34.621Z,99.99
2023-11-26T08:42:35.167Z,99.99
2023-11-26T08:43:35.663Z,99.99
2023-11-26T08:44:36.264Z,99.99
2023-11-26T08:45:36.617Z,99.99
2023-11-26T08:46:37.161Z,99.99
2023-11-26T08:47:38.133Z,99.99
2023-11-26T08:48:38.555Z,99.99
2023-11-26T08:50:39.500Z,99.99
2023-11-26T08:51:40.486Z,99.99
2023-11-26T08:52:41.254Z,99.99
2023-11-26T08:53:42.122Z,99.99
2023-11-26T08:54:42.940Z,99.99
2023-11-26T08:55:43.449Z,99.99
2023-11-26T08:56:43.750Z,99.99
2023-11-26T08:57:44.919Z,99.99
2023-11-26T08:58:45.112Z,99.99
2023-11-26T08:59:45.506Z,99.99
2023-11-26T09:00:46.075Z,99.99
2023-11-26T09:01:46.535Z,99.99
2023-11-26T09:02:47.457Z,99.99
2023-11-26T09:03:47.666Z,99.99
2023-11-26T09:04:48.235Z,99.99
2023-11-26T09:05:49.049Z,99.99
2023-11-26T09:06:49.226Z,99.99
2023-11-26T09:07:49.947Z,99.99
2023-11-26T09:08:50.457Z,99.99
2023-11-26T09:09:51.044Z,99.99
2023-11-26T09:10:51.761Z,99.99
2023-11-26T09:11:52.254Z,99.99
2023-11-26T09:12:52.821Z,99.99
2023-11-26T09:13:53.871Z,99.99
2023-11-26T09:14:54.364Z,99.99
2023-11-26T09:15:54.935Z,99.99
2023-11-26T09:16:55.687Z,99.99
2023-11-26T09:17:56.687Z,99.99
2023-11-26T09:18:56.910Z,99.99
2023-11-26T09:19:57.947Z,99.99
2023-11-26T09:20:58.870Z,99.99
2023-11-26T09:21:59.201Z,99.99
2023-11-26T09:22:59.686Z,99.99
2023-11-26T09:24:02.072Z,99.99
2023-11-26T09:25:01.242Z,99.99
2023-11-26T09:26:01.975Z,99.99
2023-11-26T09:27:01.847Z,99.99
2023-11-26T09:28:02.131Z,99.99
2023-11-26T09:29:03.942Z,99.99
2023-11-26T09:30:04.304Z,99.99
2023-11-26T09:31:04.696Z,99.99
2023-11-26T09:32:05.023Z,99.99
2023-11-26T09:33:05.408Z,99.99
2023-11-26T09:34:06.097Z,99.99
2023-11-26T09:35:06.822Z,99.99
2023-11-26T09:36:07.519Z,99.99
2023-11-26T09:37:07.913Z,99.99
2023-11-26T09:38:07.811Z,99.99
2023-11-26T09:39:08.118Z,99.99
2023-11-26T09:40:09.103Z,99.99
2023-11-26T09:41:10.008Z,99.99
2023-11-26T09:42:10.729Z,99.99
2023-11-26T09:43:10.945Z,99.99
2023-11-26T09:44:11.846Z,99.99
2023-11-26T09:45:12.364Z,99.99
2023-11-26T09:46:13.581Z,99.99
2023-11-26T09:47:13.977Z,99.99
2023-11-26T09:48:14.898Z,99.99
2023-11-26T09:49:15.020Z,99.99
2023-11-26T09:50:15.544Z,99.99
2023-11-26T09:51:16.029Z,99.99
2023-11-26T09:52:15.966Z,99.99
2023-11-26T09:53:16.624Z,99.99
2023-11-26T09:54:19.369Z,99.99
2023-11-26T09:55:17.817Z,99.99
2023-11-26T09:56:18.306Z,99.99
2023-11-26T09:57:18.798Z,99.99
2023-11-26T09:58:19.633Z,99.99
2023-11-26T09:59:20.163Z,99.99
2023-11-26T10:00:20.880Z,99.99
2023-11-26T10:01:21.000Z,99.99
2023-11-26T10:02:21.386Z,99.99
2023-11-26T10:03:22.207Z,99.99
2023-11-26T10:04:22.614Z,99.99
2023-11-26T10:05:23.299Z,99.99
2023-11-26T10:06:24.274Z,99.99
2023-11-26T10:07:25.213Z,99.99
2023-11-26T10:08:25.878Z,99.99
2023-11-26T10:09:26.787Z,99.99
2023-11-26T10:10:27.151Z,99.99
2023-11-26T10:11:27.884Z,99.99
2023-11-26T10:12:30.256Z,99.99
2023-11-26T10:13:28.825Z,99.99
2023-11-26T10:14:29.549Z,99.99
2023-11-26T10:15:30.597Z,99.99
2023-11-26T10:16:30.958Z,99.25
2023-11-26T10:17:31.574Z,99.44
2023-11-26T10:18:32.878Z,98.68
2023-11-26T10:19:33.371Z,98.87
2023-11-26T10:20:34.214Z,99.53
2023-11-26T10:21:35.296Z,99.82
2023-11-26T10:22:35.670Z,99.99
2023-11-26T10:23:35.614Z,99.99
2023-11-26T10:24:36.349Z,99.99
2023-11-26T10:25:36.482Z,99.99
2023-11-26T10:26:37.190Z,99.99
2023-11-26T10:27:37.157Z,99.99
2023-11-26T10:28:38.369Z,99.91
2023-11-26T10:29:39.063Z,99.63
2023-11-26T10:30:39.966Z,98.96
2023-11-26T10:31:40.548Z,99.34
2023-11-26T10:32:41.342Z,98.87
2023-11-26T10:33:42.279Z,99.25
2023-11-26T10:34:42.511Z,99.25
2023-11-26T10:35:43.396Z,99.06
2023-11-26T10:36:44.269Z,99.72
2023-11-26T10:37:45.223Z,99.53
2023-11-26T10:38:46.093Z,99.82
2023-11-26T10:39:47.295Z,99.99
2023-11-26T10:40:47.410Z,99.99
2023-11-26T10:41:48.118Z,99.99
2023-11-26T10:42:48.491Z,99.99
2023-11-26T10:43:57.603Z,99.99
2023-11-26T10:44:49.310Z,99.99
2023-11-26T10:45:49.934Z,99.99
2023-11-26T10:46:50.635Z,99.99
2023-11-26T10:47:51.123Z,99.99
2023-11-26T10:48:51.920Z,99.99
2023-11-26T10:49:52.491Z,99.99
2023-11-26T10:50:53.078Z,99.99
2023-11-26T10:51:53.110Z,99.99
2023-11-26T10:52:53.702Z,99.99
2023-11-26T10:53:54.438Z,99.99
2023-11-26T10:54:55.055Z,99.99
2023-11-26T10:55:55.939Z,99.99
2023-11-26T10:56:56.519Z,99.99
2023-11-26T10:57:56.954Z,99.99
2023-11-26T10:58:57.341Z,99.99
2023-11-26T10:59:57.448Z,99.99
2023-11-26T11:00:58.044Z,99.99
2023-11-26T11:01:58.191Z,99.99
2023-11-26T11:02:58.643Z,99.99
2023-11-26T11:03:58.891Z,99.99
2023-11-26T11:04:58.952Z,99.99
2023-11-26T11:06:03.617Z,99.99
2023-11-26T11:06:59.726Z,99.99
2023-11-26T11:08:00.388Z,99.99
2023-11-26T11:09:01.103Z,99.99
2023-11-26T11:10:01.643Z,99.99
2023-11-26T11:11:02.891Z,99.99
2023-11-26T11:12:03.170Z,99.99
2023-11-26T11:13:04.153Z,99.99
2023-11-26T11:14:04.780Z,99.99
2023-11-26T11:15:05.540Z,99.99
2023-11-26T11:16:05.599Z,99.99
2023-11-26T11:17:06.626Z,99.99
2023-11-26T11:18:09.065Z,99.99
2023-11-26T11:19:08.450Z,99.99
2023-11-26T11:20:08.647Z,99.99
2023-11-26T11:21:09.449Z,99.99
2023-11-26T11:22:10.173Z,99.99
2023-11-26T11:23:11.050Z,99.99
2023-11-26T11:24:13.015Z,99.99
2023-11-26T11:25:11.773Z,99.99
2023-11-26T11:26:13.057Z,99.99
2023-11-26T11:27:14.064Z,99.99
2023-11-26T11:28:14.817Z,99.99
2023-11-26T11:29:15.502Z,99.99
2023-11-26T11:30:16.181Z,99.99
2023-11-26T11:31:16.639Z,99.99
2023-11-26T11:32:16.934Z,99.99
2023-11-26T11:33:17.690Z,99.99
2023-11-26T11:34:18.560Z,99.99
2023-11-26T11:35:18.733Z,99.99
2023-11-26T11:36:19.425Z,99.99
2023-11-26T11:37:20.034Z,99.99
2023-11-26T11:38:21.138Z,99.99
2023-11-26T11:39:21.876Z,99.99
2023-11-26T11:40:22.823Z,99.99
2023-11-26T11:41:23.092Z,99.99
2023-11-26T11:42:23.864Z,99.99
2023-11-26T11:43:23.831Z,99.99
2023-11-26T11:44:24.200Z,99.99
2023-11-26T11:45:25.351Z,99.99
2023-11-26T11:46:26.273Z,99.99
2023-11-26T11:47:26.494Z,99.99
2023-11-26T11:48:27.081Z,99.99
2023-11-26T11:49:27.805Z,99.99
2023-11-26T11:50:27.956Z,99.99
2023-11-26T11:51:28.298Z,99.99
2023-11-26T11:52:28.611Z,99.99
2023-11-26T11:53:35.515Z,99.99
2023-11-26T11:54:30.289Z,99.99
2023-11-26T11:55:31.063Z,99.99
2023-11-26T11:56:31.780Z,99.99
2023-11-26T11:57:32.614Z,99.99
2023-11-26T11:58:32.514Z,99.99
2023-11-26T11:59:33.607Z,99.99
2023-11-26T12:00:34.195Z,99.99
2023-11-26T12:01:35.255Z,99.99
2023-11-26T12:02:35.871Z,99.99
2023-11-26T12:03:36.575Z,99.99
2023-11-26T12:04:36.980Z,99.99
2023-11-26T12:05:37.020Z,99.99
2023-11-26T12:06:37.935Z,99.99
2023-11-26T12:07:38.662Z,99.99
2023-11-26T12:08:39.133Z,99.99
2023-11-26T12:09:39.463Z,99.99
2023-11-26T12:10:40.250Z,99.99
2023-11-26T12:11:41.553Z,99.99
2023-11-26T12:12:42.058Z,99.99
2023-11-26T12:13:43.035Z,99.99
2023-11-26T12:14:43.536Z,99.99
2023-11-26T12:15:44.094Z,99.99
2023-11-26T12:16:44.941Z,99.99
2023-11-26T12:17:47.431Z,99.99
2023-11-26T12:18:46.234Z,99.99
2023-11-26T12:19:46.946Z,99.99
2023-11-26T12:20:46.900Z,99.99
2023-11-26T12:21:47.199Z,99.99
2023-11-26T12:22:47.846Z,99.99
2023-11-26T12:23:48.771Z,99.99
2023-11-26T12:24:49.841Z,99.99
2023-11-26T12:25:50.519Z,99.99
2023-11-26T12:26:51.210Z,99.99
2023-11-26T12:27:51.794Z,99.99
2023-11-26T12:28:51.969Z,99.99
2023-11-26T12:29:52.285Z,99.99
2023-11-26T12:30:53.259Z,99.99
2023-11-26T12:31:53.657Z,99.99
2023-11-26T12:32:54.325Z,99.99
2023-11-26T12:33:55.077Z,99.99
2023-11-26T12:34:56.002Z,99.99
2023-11-26T12:35:56.163Z,99.99
2023-11-26T12:36:56.697Z,99.99
2023-11-26T12:37:57.378Z,99.99
2023-11-26T12:38:58.131Z,99.99
2023-11-26T12:39:59.080Z,99.99
2023-11-26T12:40:59.821Z,99.99
2023-11-26T12:42:00.229Z,99.99
2023-11-26T12:43:01.233Z,99.99
2023-11-26T12:44:02.000Z,99.99
2023-11-26T12:45:02.324Z,99.99
2023-11-26T12:46:02.990Z,99.99
2023-11-26T12:47:03.024Z,99.99
2023-11-26T12:48:03.742Z,99.99
2023-11-26T12:49:04.593Z,99.99
2023-11-26T12:50:05.347Z,99.99
2023-11-26T12:51:05.435Z,99.99
2023-11-26T12:52:05.779Z,99.99
2023-11-26T12:53:06.548Z,99.99
2023-11-26T12:54:07.636Z,99.99
2023-11-26T12:55:08.141Z,99.99
2023-11-26T12:56:08.658Z,99.99
2023-11-26T12:57:09.172Z,99.99
2023-11-26T12:58:09.599Z,99.99
2023-11-26T12:59:10.301Z,99.99
2023-11-26T13:00:11.175Z,99.99
2023-11-26T13:01:12.249Z,99.99